createdAt,value
2022-09-12T00:01:23.652Z,11.99
2022-09-12T00:03:59.147Z,12.01
2022-09-12T00:06:33.987Z,11.95
2022-09-12T00:09:08.144Z,11.91
2022-09-12T00:11:39.156Z,11.88
2022-09-12T00:14:09.272Z,11.84
2022-09-12T00:16:38.260Z,11.81
2022-09-12T00:19:07.786Z,11.77
2022-09-12T00:21:38.818Z,11.72
2022-09-12T00:24:07.218Z,11.68
2022-09-12T00:26:35.300Z,11.69
2022-09-12T00:29:04.114Z,11.66
2022-09-12T00:31:32.347Z,11.59
2022-09-12T00:34:01.569Z,11.60
2022-09-12T00:36:30.606Z,11.59
2022-09-12T00:38:58.960Z,11.57
2022-09-12T00:41:32.695Z,11.53
2022-09-12T00:44:23.551Z,11.48
2022-09-12T00:47:05.841Z,11.46
2022-09-12T00:49:51.919Z,11.43
2022-09-12T00:52:35.322Z,11.40
2022-09-12T00:55:39.410Z,11.40
2022-09-12T00:58:23.344Z,11.34
2022-09-12T01:00:51.523Z,11.34
2022-09-12T01:03:23.053Z,11.34
2022-09-12T01:06:08.718Z,11.30
2022-09-12T01:08:37.504Z,11.30
2022-09-12T01:11:06.806Z,11.31
2022-09-12T01:13:35.678Z,11.29
2022-09-12T01:16:06.108Z,11.33
2022-09-12T01:19:09.045Z,11.34
2022-09-12T01:22:03.126Z,11.38
2022-09-12T01:25:01.801Z,11.31
2022-09-12T01:28:02.525Z,11.30
2022-09-12T01:30:54.199Z,11.33
2022-09-12T01:33:55.050Z,11.33
2022-09-12T01:36:48.152Z,11.34
2022-09-12T01:39:56.362Z,11.38
2022-09-12T01:42:33.616Z,11.41
2022-09-12T01:45:26.762Z,11.44
2022-09-12T01:48:03.147Z,11.43
2022-09-12T01:50:37.202Z,11.41
2022-09-12T01:53:14.645Z,11.41
2022-09-12T01:56:07.530Z,11.40
2022-09-12T01:58:50.417Z,11.37
2022-09-12T02:01:29.552Z,11.38
2022-09-12T02:04:10.499Z,11.39
2022-09-12T02:06:54.153Z,11.37
2022-09-12T02:09:29.467Z,11.34
2022-09-12T02:12:01.358Z,11.39
2022-09-12T02:14:36.608Z,11.40
2022-09-12T02:17:19.311Z,11.39
2022-09-12T02:20:07.174Z,11.38
2022-09-12T02:22:38.515Z,11.36
2022-09-12T02:25:10.316Z,11.35
2022-09-12T02:27:45.863Z,11.31
2022-09-12T02:30:16.457Z,11.31
2022-09-12T02:33:06.125Z,11.34
2022-09-12T02:35:53.851Z,11.36
2022-09-12T02:38:37.712Z,11.37
2022-09-12T02:41:05.778Z,11.41
2022-09-12T02:43:33.719Z,11.42
2022-09-12T02:46:01.601Z,11.41
2022-09-12T02:48:34.455Z,11.39
2022-09-12T02:51:02.982Z,11.38
2022-09-12T02:53:30.943Z,11.39
2022-09-12T02:55:58.736Z,11.36
2022-09-12T02:58:31.275Z,11.36
2022-09-12T03:01:33.465Z,11.36
2022-09-12T03:04:20.813Z,11.36
2022-09-12T03:07:44.595Z,11.38
2022-09-12T03:10:41.762Z,11.38
2022-09-12T03:13:29.523Z,11.38
2022-09-12T03:16:21.399Z,11.32
2022-09-12T03:19:06.163Z,11.32
2022-09-12T03:21:58.560Z,11.32
2022-09-12T03:24:38.079Z,11.32
2022-09-12T03:27:11.639Z,11.35
2022-09-12T03:29:41.859Z,11.38
2022-09-12T03:32:09.573Z,11.38
2022-09-12T03:34:37.538Z,11.40
2022-09-12T03:37:05.957Z,11.46
2022-09-12T03:39:34.030Z,11.51
2022-09-12T03:42:01.737Z,11.56
2022-09-12T03:44:29.478Z,11.59
2022-09-12T03:46:57.155Z,11.64
2022-09-12T03:49:24.951Z,11.67
2022-09-12T03:51:52.648Z,11.67
2022-09-12T03:54:20.323Z,11.68
2022-09-12T03:56:48.025Z,11.76
2022-09-12T03:59:15.803Z,11.81
2022-09-12T04:01:43.542Z,11.87
2022-09-12T04:04:11.279Z,11.89
2022-09-12T04:06:39.105Z,11.94
2022-09-12T04:09:06.786Z,11.99
2022-09-12T04:11:35.987Z,12.04
2022-09-12T04:14:03.907Z,12.10
2022-09-12T04:16:32.412Z,12.11
2022-09-12T04:19:00.317Z,12.14
2022-09-12T04:21:28.019Z,12.14
2022-09-12T04:23:55.701Z,12.18
2022-09-12T04:26:23.545Z,12.14
2022-09-12T04:28:55.005Z,12.08
2022-09-12T04:31:23.501Z,12.14
2022-09-12T04:33:57.117Z,12.10
2022-09-12T04:36:27.821Z,12.03
2022-09-12T04:38:55.810Z,12.11
2022-09-12T04:41:27.112Z,12.19
2022-09-12T04:44:04.137Z,12.21
2022-09-12T04:46:37.025Z,12.19
2022-09-12T04:49:05.679Z,12.23
2022-09-12T04:51:36.956Z,12.29
2022-09-12T04:54:19.589Z,12.27
2022-09-12T04:56:50.886Z,12.16
2022-09-12T04:59:22.379Z,12.15
2022-09-12T05:01:50.257Z,12.18
2022-09-12T05:04:18.560Z,12.14
2022-09-12T05:06:47.433Z,12.21
2022-09-12T05:09:16.137Z,12.23
2022-09-12T05:12:04.302Z,12.26
2022-09-12T05:14:34.334Z,12.26
2022-09-12T05:17:04.153Z,12.33
2022-09-12T05:19:32.986Z,12.36
2022-09-12T05:22:00.851Z,12.41
2022-09-12T05:24:28.736Z,12.42
2022-09-12T05:26:56.462Z,12.37
2022-09-12T05:29:25.610Z,12.44
2022-09-12T05:31:53.737Z,12.51
2022-09-12T05:34:22.237Z,12.53
2022-09-12T05:36:50.072Z,12.57
2022-09-12T05:39:18.610Z,12.59
2022-09-12T05:41:47.296Z,12.60
2022-09-12T05:44:15.529Z,12.64
2022-09-12T05:46:51.200Z,12.67
2022-09-12T05:49:19.050Z,12.74
2022-09-12T05:51:46.791Z,12.85
2022-09-12T05:54:19.430Z,12.94
2022-09-12T05:56:48.090Z,12.94
2022-09-12T05:59:21.510Z,12.93
2022-09-12T06:01:49.604Z,12.95
2022-09-12T06:04:18.136Z,12.88
2022-09-12T06:06:46.646Z,12.86
2022-09-12T06:09:16.799Z,12.85
2022-09-12T06:11:46.462Z,12.94
2022-09-12T06:14:17.725Z,12.99
2022-09-12T06:16:47.019Z,13.10
2022-09-12T06:19:23.694Z,13.16
2022-09-12T06:21:52.717Z,13.24
2022-09-12T06:24:21.751Z,13.16
2022-09-12T06:26:52.499Z,13.18
2022-09-12T06:29:20.434Z,13.32
2022-09-12T06:31:48.378Z,13.37
2022-09-12T06:34:16.957Z,13.31
2022-09-12T06:36:48.494Z,13.29
2022-09-12T06:39:19.683Z,13.28
2022-09-12T06:41:49.612Z,13.22
2022-09-12T06:44:22.570Z,13.20
2022-09-12T06:46:50.521Z,13.27
2022-09-12T06:49:18.489Z,13.37
2022-09-12T06:51:46.263Z,13.53
2022-09-12T06:54:16.989Z,13.69
2022-09-12T06:56:45.065Z,13.82
2022-09-12T06:59:12.944Z,13.84
2022-09-12T07:01:41.853Z,13.95
2022-09-12T07:04:10.307Z,14.03
2022-09-12T07:06:41.819Z,13.96
2022-09-12T07:09:16.263Z,13.96
2022-09-12T07:11:45.871Z,14.02
2022-09-12T07:14:15.296Z,13.92
2022-09-12T07:16:43.414Z,14.02
2022-09-12T07:19:12.215Z,14.18
2022-09-12T07:21:40.760Z,14.18
2022-09-12T07:24:10.715Z,14.20
2022-09-12T07:26:42.073Z,14.44
2022-09-12T07:29:36.024Z,14.52
2022-09-12T07:32:05.920Z,14.53
2022-09-12T07:34:34.886Z,14.67
2022-09-12T07:37:02.806Z,14.79
2022-09-12T07:39:30.521Z,14.80
2022-09-12T07:41:58.665Z,14.74
2022-09-12T07:44:27.322Z,14.98
2022-09-12T07:46:55.059Z,14.96
2022-09-12T07:49:22.718Z,14.80
2022-09-12T07:51:50.437Z,14.76
2022-09-12T07:54:18.313Z,14.94
2022-09-12T07:56:45.971Z,14.85
2022-09-12T07:59:13.686Z,15.01
2022-09-12T08:01:41.670Z,15.07
2022-09-12T08:04:09.785Z,15.07
2022-09-12T08:06:37.556Z,15.03
2022-09-12T08:09:05.611Z,15.01
2022-09-12T08:11:33.989Z,14.83
2022-09-12T08:14:03.067Z,14.90
2022-09-12T08:16:32.969Z,15.08
2022-09-12T08:19:03.427Z,15.10
2022-09-12T08:21:33.753Z,15.34
2022-09-12T08:24:06.758Z,15.43
2022-09-12T08:26:36.057Z,15.34
2022-09-12T08:29:04.482Z,15.35
2022-09-12T08:31:36.960Z,15.41
2022-09-12T08:34:05.821Z,15.65
2022-09-12T08:36:35.245Z,15.58
2022-09-12T08:39:07.198Z,15.45
2022-09-12T08:41:41.028Z,15.53
2022-09-12T08:44:30.605Z,15.61
2022-09-12T08:47:24.274Z,15.93
2022-09-12T08:50:09.904Z,16.12
2022-09-12T08:53:04.485Z,16.33
2022-09-12T08:55:45.432Z,16.28
2022-09-12T08:58:27.133Z,16.22
2022-09-12T09:01:23.779Z,16.08
2022-09-12T09:04:26.926Z,16.21
2022-09-12T09:07:25.889Z,16.28
2022-09-12T09:10:17.845Z,15.97
2022-09-12T09:13:43.101Z,15.93
2022-09-12T09:16:38.007Z,15.83
2022-09-12T09:19:17.644Z,15.98
2022-09-12T09:21:55.042Z,16.00
2022-09-12T09:24:28.410Z,16.12
2022-09-12T09:27:11.104Z,16.41
2022-09-12T09:29:56.020Z,16.54
2022-09-12T09:32:31.631Z,16.59
2022-09-12T09:35:18.889Z,16.58
2022-09-12T09:38:05.924Z,16.73
2022-09-12T09:41:31.579Z,16.98
2022-09-12T09:44:00.142Z,17.14
2022-09-12T09:46:28.396Z,17.23
2022-09-12T09:48:59.301Z,17.19
2022-09-12T09:51:34.061Z,17.33
2022-09-12T09:54:16.424Z,17.60
2022-09-12T09:56:45.549Z,17.74
2022-09-12T09:59:25.777Z,18.08
2022-09-12T10:02:23.996Z,17.86
2022-09-12T10:04:58.767Z,17.67
2022-09-12T10:07:27.388Z,17.28
2022-09-12T10:10:17.807Z,17.15
2022-09-12T10:12:45.793Z,17.54
2022-09-12T10:15:26.526Z,18.07
2022-09-12T10:17:58.846Z,18.57
2022-09-12T10:20:44.407Z,18.34
2022-09-12T10:23:37.282Z,17.98
2022-09-12T10:26:12.623Z,17.99
2022-09-12T10:28:45.672Z,17.96
2022-09-12T10:31:29.120Z,17.91
2022-09-12T10:34:00.915Z,17.86
2022-09-12T10:36:38.449Z,17.83
2022-09-12T10:39:07.146Z,17.83
2022-09-12T10:41:39.651Z,18.01
2022-09-12T10:44:14.641Z,18.32
2022-09-12T10:46:42.430Z,18.57
2022-09-12T10:49:29.854Z,18.56
2022-09-12T10:52:18.263Z,18.51
2022-09-12T10:54:46.119Z,18.27
2022-09-12T10:58:13.546Z,18.22
2022-09-12T11:00:52.478Z,18.52
2022-09-12T11:03:40.098Z,18.25
2022-09-12T11:06:12.731Z,18.47
2022-09-12T11:08:59.598Z,18.85
2022-09-12T11:12:12.802Z,19.12
2022-09-12T11:15:09.954Z,19.21
2022-09-12T11:18:01.874Z,19.27
2022-09-12T11:20:53.969Z,18.82
2022-09-12T11:24:00.557Z,18.68
2022-09-12T11:26:51.122Z,18.90
2022-09-12T11:29:52.665Z,18.85
2022-09-12T11:32:56.022Z,19.26
2022-09-12T11:35:32.353Z,19.37
2022-09-12T11:38:27.142Z,19.33
2022-09-12T11:41:04.134Z,19.29
2022-09-12T11:43:53.204Z,19.39
2022-09-12T11:46:37.853Z,19.39
2022-09-12T11:49:11.823Z,19.29
2022-09-12T11:52:06.987Z,19.29
2022-09-12T11:54:53.395Z,19.10
2022-09-12T11:57:53.857Z,18.98
2022-09-12T12:00:32.922Z,18.80
2022-09-12T12:03:13.987Z,18.76
2022-09-12T12:05:53.510Z,18.86
2022-09-12T12:08:24.346Z,18.89
2022-09-12T12:10:58.053Z,19.07
2022-09-12T12:13:35.707Z,19.11
2022-09-12T12:16:28.076Z,19.18
2022-09-12T12:19:01.774Z,19.16
2022-09-12T12:21:29.638Z,19.01
2022-09-12T12:24:09.553Z,19.02
2022-09-12T12:26:43.406Z,19.05
2022-09-12T12:29:18.893Z,19.18
2022-09-12T12:32:02.135Z,19.07
2022-09-12T12:34:44.870Z,19.25
2022-09-12T12:37:19.512Z,19.23
2022-09-12T12:39:49.940Z,19.14
2022-09-12T12:42:50.519Z,18.98
2022-09-12T12:45:18.166Z,19.03
2022-09-12T12:47:54.182Z,19.15
2022-09-12T12:50:29.249Z,19.28
2022-09-12T12:53:15.656Z,19.40
2022-09-12T12:55:43.304Z,19.32
2022-09-12T12:58:41.162Z,19.49
2022-09-12T13:01:19.128Z,19.39
2022-09-12T13:04:01.262Z,19.41
2022-09-12T13:06:38.232Z,19.41
2022-09-12T13:09:38.030Z,19.34
2022-09-12T13:12:11.190Z,19.31
2022-09-12T13:14:52.643Z,19.19
2022-09-12T13:17:30.264Z,19.04
2022-09-12T13:20:28.940Z,19.07
2022-09-12T13:22:58.396Z,19.04
2022-09-12T13:25:36.783Z,19.04
2022-09-12T13:28:10.651Z,18.99
2022-09-12T13:30:46.417Z,18.99
2022-09-12T13:33:35.881Z,18.94
2022-09-12T13:36:35.055Z,18.86
2022-09-12T13:39:21.241Z,18.77
2022-09-12T13:42:26.887Z,18.78
2022-09-12T13:45:23.263Z,18.78
2022-09-12T13:48:02.112Z,18.77
2022-09-12T13:50:42.972Z,18.76
2022-09-12T13:53:16.910Z,18.71
2022-09-12T13:55:59.400Z,18.57
2022-09-12T13:58:31.365Z,18.59
2022-09-12T14:01:16.131Z,18.62
2022-09-12T14:04:16.324Z,18.55
2022-09-12T14:06:53.015Z,18.65
2022-09-12T14:09:34.953Z,19.23
2022-09-12T14:12:03.233Z,19.55
2022-09-12T14:14:37.654Z,19.57
2022-09-12T14:17:31.794Z,19.39
2022-09-12T14:20:12.078Z,19.48
2022-09-12T14:22:41.201Z,19.55
2022-09-12T14:25:41.506Z,19.53
2022-09-12T14:28:14.633Z,19.49
2022-09-12T14:31:06.461Z,19.79
2022-09-12T14:33:53.883Z,20.25
2022-09-12T14:36:56.334Z,20.81
2022-09-12T14:39:44.651Z,20.42
2022-09-12T14:42:21.806Z,20.17
2022-09-12T14:44:59.119Z,20.33
2022-09-12T14:47:38.919Z,20.56
2022-09-12T14:50:22.116Z,20.45
2022-09-12T14:53:34.426Z,20.41
2022-09-12T14:56:04.810Z,20.50
2022-09-12T14:58:33.498Z,20.14
2022-09-12T15:01:08.488Z,20.35
2022-09-12T15:03:51.923Z,20.29
2022-09-12T15:06:31.174Z,20.07
2022-09-12T15:09:03.489Z,19.92
2022-09-12T15:11:32.962Z,20.15
2022-09-12T15:14:14.318Z,19.94
2022-09-12T15:16:42.458Z,19.92
2022-09-12T15:19:10.211Z,19.86
2022-09-12T15:21:38.045Z,19.94
2022-09-12T15:24:06.009Z,19.93
2022-09-12T15:26:33.696Z,19.72
2022-09-12T15:29:01.602Z,19.84
2022-09-12T15:31:32.443Z,19.84
2022-09-12T15:34:02.426Z,19.97
2022-09-12T15:36:30.907Z,20.07
2022-09-12T15:38:58.807Z,19.89
2022-09-12T15:41:38.405Z,19.79
2022-09-12T15:44:11.100Z,19.81
2022-09-12T15:46:39.186Z,19.71
2022-09-12T15:49:07.440Z,19.45
2022-09-12T15:51:35.826Z,19.13
2022-09-12T15:54:04.518Z,19.04
2022-09-12T15:56:32.191Z,18.84
2022-09-12T15:59:00.354Z,18.42
2022-09-12T16:01:29.339Z,18.43
2022-09-12T16:03:57.937Z,18.43
2022-09-12T16:06:27.867Z,18.34
2022-09-12T16:08:55.678Z,18.23
2022-09-12T16:11:26.607Z,18.19
2022-09-12T16:13:56.648Z,18.12
2022-09-12T16:16:24.462Z,18.06
2022-09-12T16:18:52.413Z,17.98
2022-09-12T16:21:20.345Z,17.90
2022-09-12T16:23:48.838Z,17.84
2022-09-12T16:26:17.502Z,17.77
2022-09-12T16:28:45.717Z,17.79
2022-09-12T16:31:15.886Z,17.74
2022-09-12T16:33:43.672Z,17.70
2022-09-12T16:36:16.007Z,17.64
2022-09-12T16:38:49.778Z,17.54
2022-09-12T16:41:24.628Z,17.47
2022-09-12T16:43:53.702Z,17.40
2022-09-12T16:46:30.209Z,17.34
2022-09-12T16:48:58.990Z,17.25
2022-09-12T16:51:32.279Z,17.21
2022-09-12T16:54:00.297Z,17.16
2022-09-12T16:56:28.378Z,17.11
2022-09-12T16:58:56.184Z,17.07
2022-09-12T17:01:26.332Z,17.01
2022-09-12T17:03:57.959Z,16.97
2022-09-12T17:06:27.371Z,16.92
2022-09-12T17:09:00.928Z,16.87
2022-09-12T17:11:37.042Z,16.85
2022-09-12T17:14:08.805Z,16.84
2022-09-12T17:16:49.439Z,16.83
2022-09-12T17:19:26.667Z,16.87
2022-09-12T17:21:54.695Z,16.86
2022-09-12T17:24:23.107Z,16.87
2022-09-12T17:26:51.178Z,16.91
2022-09-12T17:29:19.234Z,16.93
2022-09-12T17:31:48.759Z,16.93
2022-09-12T17:34:17.671Z,16.88
2022-09-12T17:36:48.185Z,16.88
2022-09-12T17:39:16.197Z,16.86
2022-09-12T17:41:46.091Z,16.86
2022-09-12T17:44:14.994Z,16.81
2022-09-12T17:46:44.214Z,16.73
2022-09-12T17:49:17.273Z,16.68
2022-09-12T17:51:45.339Z,16.62
2022-09-12T17:54:17.258Z,16.57
2022-09-12T17:56:48.894Z,16.50
2022-09-12T17:59:21.481Z,16.44
2022-09-12T18:02:08.059Z,16.37
2022-09-12T18:04:35.966Z,16.30
2022-09-12T18:07:05.925Z,16.23
2022-09-12T18:09:33.743Z,16.18
2022-09-12T18:12:01.932Z,16.12
2022-09-12T18:14:29.821Z,16.11
2022-09-12T18:16:57.893Z,16.06
2022-09-12T18:19:27.514Z,16.00
2022-09-12T18:21:56.186Z,15.93
2022-09-12T18:24:24.712Z,15.88
2022-09-12T18:26:52.720Z,15.86
2022-09-12T18:29:20.722Z,15.83
2022-09-12T18:31:49.633Z,15.79
2022-09-12T18:34:18.128Z,15.73
2022-09-12T18:36:49.101Z,15.69
2022-09-12T18:39:18.191Z,15.65
2022-09-12T18:41:46.411Z,15.62
2022-09-12T18:44:14.280Z,15.58
2022-09-12T18:46:42.097Z,15.54
2022-09-12T18:49:10.678Z,15.49
2022-09-12T18:51:40.104Z,15.46
2022-09-12T18:54:13.757Z,15.42
2022-09-12T18:56:43.968Z,15.37
2022-09-12T18:59:14.175Z,15.29
2022-09-12T19:01:43.298Z,15.26
2022-09-12T19:04:13.366Z,15.26
2022-09-12T19:06:45.102Z,15.23
2022-09-12T19:09:16.339Z,15.20
2022-09-12T19:11:49.866Z,15.18
2022-09-12T19:14:26.096Z,15.15
2022-09-12T19:16:54.264Z,15.11
2022-09-12T19:19:22.467Z,15.08
2022-09-12T19:21:50.314Z,15.05
2022-09-12T19:24:18.344Z,15.04
2022-09-12T19:26:46.145Z,15.00
2022-09-12T19:29:16.484Z,14.97
2022-09-12T19:31:45.312Z,14.96
2022-09-12T19:34:15.351Z,14.93
2022-09-12T19:36:45.983Z,14.88
2022-09-12T19:39:17.255Z,14.86
2022-09-12T19:41:45.723Z,14.85
2022-09-12T19:44:13.649Z,14.82
2022-09-12T19:46:41.856Z,14.80
2022-09-12T19:49:12.324Z,14.76
2022-09-12T19:51:40.270Z,14.73
2022-09-12T19:54:08.355Z,14.77
2022-09-12T19:56:36.512Z,14.84
2022-09-12T19:59:04.818Z,14.75
2022-09-12T20:01:33.078Z,14.70
2022-09-12T20:04:01.274Z,14.64
2022-09-12T20:06:29.094Z,14.61
2022-09-12T20:08:58.011Z,14.59
2022-09-12T20:11:25.919Z,14.56
2022-09-12T20:13:54.138Z,14.53
2022-09-12T20:16:29.323Z,14.51
2022-09-12T20:19:06.954Z,14.47
2022-09-12T20:21:36.445Z,14.45
2022-09-12T20:24:08.205Z,14.43
2022-09-12T20:26:37.219Z,14.40
2022-09-12T20:29:06.466Z,14.39
2022-09-12T20:31:37.682Z,14.37
2022-09-12T20:34:07.318Z,14.33
2022-09-12T20:36:35.126Z,14.32
2022-09-12T20:39:04.256Z,14.29
2022-09-12T20:41:37.856Z,14.27
2022-09-12T20:44:05.879Z,14.34
2022-09-12T20:46:34.115Z,14.37
2022-09-12T20:49:02.521Z,14.33
2022-09-12T20:51:30.614Z,14.27
2022-09-12T20:54:01.411Z,14.24
2022-09-12T20:56:31.768Z,14.22
2022-09-12T20:59:00.034Z,14.17
2022-09-12T21:01:30.567Z,14.15
2022-09-12T21:04:03.214Z,14.09
2022-09-12T21:06:31.805Z,14.09
2022-09-12T21:09:00.468Z,14.07
2022-09-12T21:11:29.000Z,14.07
2022-09-12T21:13:57.910Z,14.04
2022-09-12T21:16:26.379Z,14.02
2022-09-12T21:18:57.272Z,13.99
2022-09-12T21:21:25.943Z,13.96
2022-09-12T21:23:58.783Z,13.93
2022-09-12T21:26:26.578Z,13.91
2022-09-12T21:28:54.699Z,13.87
2022-09-12T21:31:22.487Z,13.83
2022-09-12T21:33:51.356Z,13.80
2022-09-12T21:36:19.199Z,13.76
2022-09-12T21:38:46.911Z,13.63
2022-09-12T21:41:16.802Z,13.54
2022-09-12T21:43:45.004Z,13.55
2022-09-12T21:46:12.768Z,13.57
2022-09-12T21:48:43.390Z,13.58
2022-09-12T21:51:11.185Z,13.55
2022-09-12T21:53:38.954Z,13.49
2022-09-12T21:56:08.734Z,13.51
2022-09-12T21:58:37.381Z,13.50
2022-09-12T22:01:08.583Z,13.50
2022-09-12T22:03:36.634Z,13.48
2022-09-12T22:06:06.370Z,13.46
2022-09-12T22:08:35.759Z,13.42
2022-09-12T22:11:10.648Z,13.35
2022-09-12T22:13:41.968Z,13.32
2022-09-12T22:16:10.725Z,13.30
2022-09-12T22:18:38.565Z,13.14
2022-09-12T22:21:12.547Z,13.04
2022-09-12T22:23:59.874Z,13.10
2022-09-12T22:26:28.923Z,13.12
2022-09-12T22:28:57.056Z,13.08
2022-09-12T22:31:26.895Z,13.07
2022-09-12T22:33:57.136Z,13.05
2022-09-12T22:36:28.096Z,13.03
2022-09-12T22:38:59.247Z,13.04
2022-09-12T22:41:27.373Z,13.08
2022-09-12T22:43:56.142Z,13.05
2022-09-12T22:46:24.452Z,12.82
2022-09-12T22:48:52.198Z,12.78
2022-09-12T22:51:19.928Z,12.84
2022-09-12T22:53:47.755Z,12.89
2022-09-12T22:56:16.076Z,12.91
2022-09-12T22:58:43.975Z,12.89
2022-09-12T23:01:11.948Z,12.78
2022-09-12T23:03:40.096Z,12.74
2022-09-12T23:06:09.876Z,12.74
2022-09-12T23:08:39.361Z,12.74
2022-09-12T23:11:13.903Z,12.77
2022-09-12T23:13:44.274Z,12.78
2022-09-12T23:16:21.982Z,12.76
2022-09-12T23:18:50.796Z,12.73
2022-09-12T23:21:21.394Z,12.72
2022-09-12T23:23:50.090Z,12.74
2022-09-12T23:26:24.779Z,12.69
2022-09-12T23:29:01.239Z,12.55
2022-09-12T23:31:31.263Z,12.55
2022-09-12T23:34:03.323Z,12.46
2022-09-12T23:36:32.663Z,12.34
2022-09-12T23:39:00.770Z,12.35
2022-09-12T23:41:29.413Z,12.39
2022-09-12T23:43:57.130Z,12.29
2022-09-12T23:46:24.823Z,12.18
2022-09-12T23:48:53.521Z,12.20
2022-09-12T23:51:22.099Z,12.25
2022-09-12T23:53:49.873Z,12.28
2022-09-12T23:56:17.646Z,12.30
2022-09-12T23:58:45.373Z,12.23
